sensor_id;sensor_type;location;lat;lon;timestamp;P1;durP1;ratioP1;P2;durP2;ratioP2
73150;SDS011;61354;50.758;6.106;2023-05-01T00:00:40;5.65;;;2.90;;
73150;SDS011;61354;50.758;6.106;2023-05-01T00:03:05;5.25;;;2.55;;
73150;SDS011;61354;50.758;6.106;2023-05-01T00:05:31;5.10;;;2.60;;
73150;SDS011;61354;50.758;6.106;2023-05-01T00:07:57;4.68;;;2.40;;
73150;SDS011;61354;50.758;6.106;2023-05-01T00:10:22;3.80;;;2.28;;
73150;SDS011;61354;50.758;6.106;2023-05-01T00:12:48;3.85;;;2.20;;
73150;SDS011;61354;50.758;6.106;2023-05-01T00:15:13;4.00;;;2.60;;
73150;SDS011;61354;50.758;6.106;2023-05-01T00:17:39;4.20;;;2.17;;
73150;SDS011;61354;50.758;6.106;2023-05-01T00:20:05;3.55;;;2.50;;
73150;SDS011;61354;50.758;6.106;2023-05-01T00:22:31;6.00;;;2.58;;
73150;SDS011;61354;50.758;6.106;2023-05-01T00:24:56;6.10;;;2.40;;
73150;SDS011;61354;50.758;6.106;2023-05-01T00:27:22;3.65;;;1.80;;
73150;SDS011;61354;50.758;6.106;2023-05-01T00:29:48;4.22;;;2.15;;
73150;SDS011;61354;50.758;6.106;2023-05-01T00:32:13;4.40;;;2.20;;
73150;SDS011;61354;50.758;6.106;2023-05-01T00:34:40;5.72;;;2.85;;
73150;SDS011;61354;50.758;6.106;2023-05-01T00:37:06;4.55;;;2.38;;
73150;SDS011;61354;50.758;6.106;2023-05-01T00:39:31;4.70;;;2.60;;
73150;SDS011;61354;50.758;6.106;2023-05-01T00:41:57;5.82;;;2.42;;
73150;SDS011;61354;50.758;6.106;2023-05-01T00:44:22;5.13;;;2.58;;
73150;SDS011;61354;50.758;6.106;2023-05-01T00:46:48;3.78;;;2.13;;
73150;SDS011;61354;50.758;6.106;2023-05-01T00:49:14;5.38;;;2.40;;
73150;SDS011;61354;50.758;6.106;2023-05-01T00:51:39;4.93;;;2.28;;
73150;SDS011;61354;50.758;6.106;2023-05-01T00:54:06;5.30;;;2.53;;
73150;SDS011;61354;50.758;6.106;2023-05-01T00:56:32;4.93;;;2.33;;
73150;SDS011;61354;50.758;6.106;2023-05-01T00:58:58;4.50;;;2.22;;
73150;SDS011;61354;50.758;6.106;2023-05-01T01:01:24;3.20;;;2.00;;
73150;SDS011;61354;50.758;6.106;2023-05-01T01:03:49;3.38;;;1.98;;
73150;SDS011;61354;50.758;6.106;2023-05-01T01:06:29;6.32;;;2.58;;
73150;SDS011;61354;50.758;6.106;2023-05-01T01:15:06;5.20;;;2.42;;
73150;SDS011;61354;50.758;6.106;2023-05-01T01:17:52;4.43;;;2.25;;
73150;SDS011;61354;50.758;6.106;2023-05-01T01:35:05;3.92;;;2.55;;
73150;SDS011;61354;50.758;6.106;2023-05-01T01:40:21;5.22;;;2.60;;
73150;SDS011;61354;50.758;6.106;2023-05-01T01:43:01;3.53;;;2.13;;
73150;SDS011;61354;50.758;6.106;2023-05-01T01:45:31;7.55;;;2.60;;
73150;SDS011;61354;50.758;6.106;2023-05-01T01:48:02;3.55;;;2.10;;
73150;SDS011;61354;50.758;6.106;2023-05-01T01:50:31;3.22;;;1.90;;
73150;SDS011;61354;50.758;6.106;2023-05-01T01:53:00;3.60;;;1.92;;
73150;SDS011;61354;50.758;6.106;2023-05-01T01:55:28;3.42;;;1.92;;
73150;SDS011;61354;50.758;6.106;2023-05-01T01:57:57;4.88;;;2.05;;
73150;SDS011;61354;50.758;6.106;2023-05-01T02:00:24;3.08;;;1.83;;
73150;SDS011;61354;50.758;6.106;2023-05-01T02:02:53;3.53;;;1.95;;
73150;SDS011;61354;50.758;6.106;2023-05-01T02:05:20;3.95;;;1.95;;
73150;SDS011;61354;50.758;6.106;2023-05-01T02:07:46;4.55;;;1.90;;
73150;SDS011;61354;50.758;6.106;2023-05-01T02:10:14;3.88;;;1.90;;
73150;SDS011;61354;50.758;6.106;2023-05-01T02:12:43;5.45;;;2.10;;
73150;SDS011;61354;50.758;6.106;2023-05-01T02:15:11;2.67;;;1.73;;
73150;SDS011;61354;50.758;6.106;2023-05-01T02:17:39;3.10;;;1.85;;
73150;SDS011;61354;50.758;6.106;2023-05-01T02:20:06;2.90;;;1.83;;
73150;SDS011;61354;50.758;6.106;2023-05-01T02:22:34;3.10;;;1.60;;
73150;SDS011;61354;50.758;6.106;2023-05-01T02:25:01;4.40;;;1.95;;
73150;SDS011;61354;50.758;6.106;2023-05-01T02:27:31;3.80;;;1.83;;
73150;SDS011;61354;50.758;6.106;2023-05-01T02:30:00;4.30;;;1.80;;
73150;SDS011;61354;50.758;6.106;2023-05-01T02:32:26;3.58;;;2.00;;
73150;SDS011;61354;50.758;6.106;2023-05-01T02:34:53;2.75;;;1.70;;
73150;SDS011;61354;50.758;6.106;2023-05-01T02:37:18;3.33;;;1.80;;
73150;SDS011;61354;50.758;6.106;2023-05-01T02:39:44;3.72;;;1.98;;
73150;SDS011;61354;50.758;6.106;2023-05-01T02:42:10;4.45;;;2.17;;
73150;SDS011;61354;50.758;6.106;2023-05-01T02:44:53;3.38;;;1.95;;
73150;SDS011;61354;50.758;6.106;2023-05-01T02:47:22;3.72;;;2.20;;
73150;SDS011;61354;50.758;6.106;2023-05-01T02:49:49;4.68;;;2.08;;
73150;SDS011;61354;50.758;6.106;2023-05-01T02:52:16;3.92;;;1.95;;
73150;SDS011;61354;50.758;6.106;2023-05-01T02:54:43;2.95;;;1.85;;
73150;SDS011;61354;50.758;6.106;2023-05-01T02:57:10;3.20;;;1.63;;
73150;SDS011;61354;50.758;6.106;2023-05-01T02:59:36;4.13;;;2.30;;
73150;SDS011;61354;50.758;6.106;2023-05-01T03:02:02;2.95;;;1.88;;
73150;SDS011;61354;50.758;6.106;2023-05-01T03:04:28;3.28;;;1.88;;
73150;SDS011;61354;50.758;6.106;2023-05-01T03:06:53;3.30;;;1.70;;
73150;SDS011;61354;50.758;6.106;2023-05-01T03:09:19;2.80;;;1.70;;
73150;SDS011;61354;50.758;6.106;2023-05-01T03:11:46;3.38;;;1.95;;
73150;SDS011;61354;50.758;6.106;2023-05-01T03:14:12;3.45;;;1.88;;
73150;SDS011;61354;50.758;6.106;2023-05-01T03:16:37;3.25;;;1.98;;
73150;SDS011;61354;50.758;6.106;2023-05-01T03:19:03;2.90;;;1.80;;
73150;SDS011;61354;50.758;6.106;2023-05-01T03:21:30;3.42;;;1.90;;
73150;SDS011;61354;50.758;6.106;2023-05-01T03:23:56;4.43;;;2.00;;
73150;SDS011;61354;50.758;6.106;2023-05-01T03:26:21;3.00;;;1.90;;
73150;SDS011;61354;50.758;6.106;2023-05-01T03:28:47;2.80;;;1.70;;
73150;SDS011;61354;50.758;6.106;2023-05-01T03:31:12;3.75;;;1.80;;
73150;SDS011;61354;50.758;6.106;2023-05-01T03:33:38;3.75;;;1.70;;
73150;SDS011;61354;50.758;6.106;2023-05-01T03:36:04;3.88;;;1.70;;
73150;SDS011;61354;50.758;6.106;2023-05-01T03:38:31;2.95;;;1.80;;
73150;SDS011;61354;50.758;6.106;2023-05-01T03:40:57;2.30;;;1.58;;
73150;SDS011;61354;50.758;6.106;2023-05-01T03:43:23;3.08;;;1.70;;
73150;SDS011;61354;50.758;6.106;2023-05-01T03:45:49;4.25;;;1.60;;
73150;SDS011;61354;50.758;6.106;2023-05-01T03:48:16;3.08;;;1.60;;
73150;SDS011;61354;50.758;6.106;2023-05-01T03:50:44;2.45;;;1.60;;
73150;SDS011;61354;50.758;6.106;2023-05-01T03:53:11;2.78;;;1.52;;
73150;SDS011;61354;50.758;6.106;2023-05-01T03:55:37;2.95;;;1.45;;
73150;SDS011;61354;50.758;6.106;2023-05-01T03:58:04;2.53;;;1.50;;
73150;SDS011;61354;50.758;6.106;2023-05-01T04:00:30;2.88;;;1.67;;
73150;SDS011;61354;50.758;6.106;2023-05-01T04:02:56;2.28;;;1.40;;
73150;SDS011;61354;50.758;6.106;2023-05-01T04:05:22;3.50;;;1.65;;
73150;SDS011;61354;50.758;6.106;2023-05-01T04:07:47;3.88;;;1.50;;
73150;SDS011;61354;50.758;6.106;2023-05-01T04:10:13;3.28;;;1.58;;
73150;SDS011;61354;50.758;6.106;2023-05-01T04:12:39;2.90;;;1.67;;
73150;SDS011;61354;50.758;6.106;2023-05-01T04:15:05;2.42;;;1.48;;
73150;SDS011;61354;50.758;6.106;2023-05-01T04:17:31;2.65;;;1.50;;
73150;SDS011;61354;50.758;6.106;2023-05-01T04:19:57;2.63;;;1.45;;
73150;SDS011;61354;50.758;6.106;2023-05-01T04:22:22;3.10;;;1.40;;
73150;SDS011;61354;50.758;6.106;2023-05-01T04:24:48;2.72;;;1.40;;
73150;SDS011;61354;50.758;6.106;2023-05-01T04:27:14;3.03;;;1.60;;
73150;SDS011;61354;50.758;6.106;2023-05-01T04:29:39;3.30;;;2.03;;
73150;SDS011;61354;50.758;6.106;2023-05-01T04:32:06;3.38;;;1.88;;
73150;SDS011;61354;50.758;6.106;2023-05-01T04:34:32;3.90;;;1.70;;
73150;SDS011;61354;50.758;6.106;2023-05-01T04:36:57;3.47;;;1.70;;
73150;SDS011;61354;50.758;6.106;2023-05-01T04:39:23;4.13;;;1.80;;
73150;SDS011;61354;50.758;6.106;2023-05-01T04:41:49;3.00;;;1.88;;
73150;SDS011;61354;50.758;6.106;2023-05-01T04:44:14;3.42;;;2.00;;
73150;SDS011;61354;50.758;6.106;2023-05-01T04:46:40;3.95;;;1.90;;
73150;SDS011;61354;50.758;6.106;2023-05-01T04:49:06;3.50;;;2.00;;
73150;SDS011;61354;50.758;6.106;2023-05-01T04:51:32;2.75;;;1.63;;
73150;SDS011;61354;50.758;6.106;2023-05-01T04:53:58;2.65;;;1.52;;
73150;SDS011;61354;50.758;6.106;2023-05-01T04:56:23;1.70;;;1.33;;
73150;SDS011;61354;50.758;6.106;2023-05-01T04:58:49;3.03;;;1.63;;
73150;SDS011;61354;50.758;6.106;2023-05-01T05:01:15;2.30;;;1.58;;
73150;SDS011;61354;50.758;6.106;2023-05-01T05:03:41;3.30;;;1.73;;
73150;SDS011;61354;50.758;6.106;2023-05-01T05:06:06;2.88;;;1.40;;
73150;SDS011;61354;50.758;6.106;2023-05-01T05:08:32;2.80;;;1.75;;
73150;SDS011;61354;50.758;6.106;2023-05-01T05:10:58;2.95;;;1.70;;
73150;SDS011;61354;50.758;6.106;2023-05-01T05:13:25;2.47;;;1.40;;
73150;SDS011;61354;50.758;6.106;2023-05-01T05:15:51;3.55;;;1.27;;
73150;SDS011;61354;50.758;6.106;2023-05-01T05:18:16;2.80;;;1.58;;
73150;SDS011;61354;50.758;6.106;2023-05-01T05:20:42;3.03;;;1.40;;
73150;SDS011;61354;50.758;6.106;2023-05-01T05:23:08;2.90;;;1.60;;
73150;SDS011;61354;50.758;6.106;2023-05-01T05:25:34;2.40;;;1.20;;
73150;SDS011;61354;50.758;6.106;2023-05-01T05:28:00;2.78;;;1.55;;
73150;SDS011;61354;50.758;6.106;2023-05-01T05:30:26;3.42;;;1.73;;
73150;SDS011;61354;50.758;6.106;2023-05-01T05:32:51;3.33;;;1.60;;
73150;SDS011;61354;50.758;6.106;2023-05-01T05:35:17;2.45;;;1.50;;
73150;SDS011;61354;50.758;6.106;2023-05-01T05:37:43;2.45;;;1.88;;
73150;SDS011;61354;50.758;6.106;2023-05-01T05:40:09;1.98;;;1.20;;
73150;SDS011;61354;50.758;6.106;2023-05-01T05:42:35;2.30;;;1.42;;
73150;SDS011;61354;50.758;6.106;2023-05-01T05:45:01;2.45;;;1.60;;
73150;SDS011;61354;50.758;6.106;2023-05-01T05:47:26;2.78;;;1.55;;
73150;SDS011;61354;50.758;6.106;2023-05-01T05:49:52;1.75;;;1.20;;
73150;SDS011;61354;50.758;6.106;2023-05-01T05:52:19;1.77;;;1.17;;
73150;SDS011;61354;50.758;6.106;2023-05-01T05:54:45;2.35;;;1.40;;
73150;SDS011;61354;50.758;6.106;2023-05-01T05:57:11;1.90;;;1.20;;
73150;SDS011;61354;50.758;6.106;2023-05-01T05:59:37;1.90;;;1.30;;
73150;SDS011;61354;50.758;6.106;2023-05-01T06:02:02;2.58;;;1.25;;
73150;SDS011;61354;50.758;6.106;2023-05-01T06:04:28;2.50;;;1.35;;
73150;SDS011;61354;50.758;6.106;2023-05-01T06:06:54;2.17;;;1.30;;
73150;SDS011;61354;50.758;6.106;2023-05-01T06:09:19;2.08;;;1.30;;
73150;SDS011;61354;50.758;6.106;2023-05-01T06:11:45;1.40;;;1.30;;
73150;SDS011;61354;50.758;6.106;2023-05-01T06:14:12;3.35;;;1.50;;
73150;SDS011;61354;50.758;6.106;2023-05-01T06:16:38;2.17;;;1.40;;
73150;SDS011;61354;50.758;6.106;2023-05-01T06:19:04;2.08;;;1.17;;
73150;SDS011;61354;50.758;6.106;2023-05-01T06:21:30;3.80;;;1.20;;
73150;SDS011;61354;50.758;6.106;2023-05-01T06:23:56;3.63;;;1.60;;
73150;SDS011;61354;50.758;6.106;2023-05-01T06:26:22;2.00;;;1.27;;
73150;SDS011;61354;50.758;6.106;2023-05-01T06:28:48;2.50;;;1.23;;
73150;SDS011;61354;50.758;6.106;2023-05-01T06:31:13;3.10;;;1.30;;
73150;SDS011;61354;50.758;6.106;2023-05-01T06:33:39;2.17;;;1.17;;
73150;SDS011;61354;50.758;6.106;2023-05-01T06:36:04;2.70;;;1.30;;
73150;SDS011;61354;50.758;6.106;2023-05-01T06:38:30;2.17;;;1.40;;
73150;SDS011;61354;50.758;6.106;2023-05-01T06:40:57;3.28;;;1.60;;
73150;SDS011;61354;50.758;6.106;2023-05-01T06:43:23;1.77;;;1.25;;
73150;SDS011;61354;50.758;6.106;2023-05-01T06:45:52;3.45;;;1.40;;
73150;SDS011;61354;50.758;6.106;2023-05-01T06:48:17;2.38;;;1.33;;
73150;SDS011;61354;50.758;6.106;2023-05-01T06:50:43;2.67;;;1.42;;
73150;SDS011;61354;50.758;6.106;2023-05-01T06:53:09;6.00;;;1.50;;
73150;SDS011;61354;50.758;6.106;2023-05-01T06:55:34;2.05;;;1.15;;
73150;SDS011;61354;50.758;6.106;2023-05-01T06:58:00;2.72;;;1.40;;
73150;SDS011;61354;50.758;6.106;2023-05-01T07:00:25;1.80;;;1.20;;
73150;SDS011;61354;50.758;6.106;2023-05-01T07:02:54;2.63;;;1.40;;
73150;SDS011;61354;50.758;6.106;2023-05-01T07:05:20;3.03;;;1.15;;
73150;SDS011;61354;50.758;6.106;2023-05-01T07:07:46;2.78;;;1.40;;
73150;SDS011;61354;50.758;6.106;2023-05-01T07:10:13;3.40;;;1.42;;
73150;SDS011;61354;50.758;6.106;2023-05-01T07:12:39;2.85;;;1.33;;
73150;SDS011;61354;50.758;6.106;2023-05-01T07:15:05;2.15;;;1.20;;
73150;SDS011;61354;50.758;6.106;2023-05-01T07:17:31;2.25;;;1.23;;
73150;SDS011;61354;50.758;6.106;2023-05-01T07:19:57;1.58;;;1.10;;
73150;SDS011;61354;50.758;6.106;2023-05-01T07:22:23;2.33;;;1.35;;
73150;SDS011;61354;50.758;6.106;2023-05-01T07:24:49;2.10;;;1.30;;
73150;SDS011;61354;50.758;6.106;2023-05-01T07:27:14;1.60;;;1.20;;
73150;SDS011;61354;50.758;6.106;2023-05-01T07:29:40;1.70;;;1.17;;
73150;SDS011;61354;50.758;6.106;2023-05-01T07:32:05;3.13;;;1.20;;
73150;SDS011;61354;50.758;6.106;2023-05-01T07:34:31;1.55;;;1.27;;
73150;SDS011;61354;50.758;6.106;2023-05-01T07:36:57;2.20;;;1.15;;
73150;SDS011;61354;50.758;6.106;2023-05-01T07:39:22;2.05;;;1.40;;
73150;SDS011;61354;50.758;6.106;2023-05-01T07:41:48;3.15;;;1.45;;
73150;SDS011;61354;50.758;6.106;2023-05-01T07:44:14;2.30;;;1.20;;
73150;SDS011;61354;50.758;6.106;2023-05-01T07:46:39;2.60;;;1.30;;
73150;SDS011;61354;50.758;6.106;2023-05-01T07:49:05;4.13;;;1.23;;
73150;SDS011;61354;50.758;6.106;2023-05-01T07:51:31;4.13;;;1.35;;
73150;SDS011;61354;50.758;6.106;2023-05-01T07:53:57;1.98;;;1.30;;
73150;SDS011;61354;50.758;6.106;2023-05-01T07:56:24;1.77;;;1.15;;
73150;SDS011;61354;50.758;6.106;2023-05-01T07:58:50;2.88;;;1.30;;
73150;SDS011;61354;50.758;6.106;2023-05-01T08:01:15;2.05;;;1.23;;
73150;SDS011;61354;50.758;6.106;2023-05-01T08:03:41;2.65;;;1.25;;
73150;SDS011;61354;50.758;6.106;2023-05-01T08:06:06;1.98;;;1.30;;
73150;SDS011;61354;50.758;6.106;2023-05-01T08:08:32;3.58;;;1.70;;
73150;SDS011;61354;50.758;6.106;2023-05-01T08:10:58;1.85;;;1.13;;
73150;SDS011;61354;50.758;6.106;2023-05-01T08:13:23;2.50;;;1.38;;
73150;SDS011;61354;50.758;6.106;2023-05-01T08:15:49;2.10;;;1.30;;
73150;SDS011;61354;50.758;6.106;2023-05-01T08:18:14;3.10;;;1.40;;
73150;SDS011;61354;50.758;6.106;2023-05-01T08:20:44;3.08;;;1.30;;
73150;SDS011;61354;50.758;6.106;2023-05-01T08:23:14;2.75;;;1.50;;
73150;SDS011;61354;50.758;6.106;2023-05-01T08:25:40;2.90;;;1.77;;
73150;SDS011;61354;50.758;6.106;2023-05-01T08:28:05;2.53;;;1.50;;
73150;SDS011;61354;50.758;6.106;2023-05-01T08:30:31;2.60;;;1.50;;
73150;SDS011;61354;50.758;6.106;2023-05-01T08:32:57;3.17;;;1.70;;
73150;SDS011;61354;50.758;6.106;2023-05-01T08:35:22;3.08;;;1.77;;
73150;SDS011;61354;50.758;6.106;2023-05-01T08:37:48;3.33;;;1.80;;
73150;SDS011;61354;50.758;6.106;2023-05-01T08:40:14;3.40;;;1.83;;
73150;SDS011;61354;50.758;6.106;2023-05-01T08:42:40;3.83;;;1.73;;
73150;SDS011;61354;50.758;6.106;2023-05-01T08:45:09;3.38;;;2.00;;
73150;SDS011;61354;50.758;6.106;2023-05-01T08:47:36;3.40;;;1.90;;
73150;SDS011;61354;50.758;6.106;2023-05-01T08:50:03;2.75;;;1.73;;
73150;SDS011;61354;50.758;6.106;2023-05-01T08:52:34;3.10;;;1.48;;
73150;SDS011;61354;50.758;6.106;2023-05-01T08:55:02;2.60;;;1.73;;
73150;SDS011;61354;50.758;6.106;2023-05-01T08:57:28;4.93;;;2.05;;
73150;SDS011;61354;50.758;6.106;2023-05-01T08:59:56;3.35;;;1.67;;
73150;SDS011;61354;50.758;6.106;2023-05-01T09:02:23;3.22;;;1.75;;
73150;SDS011;61354;50.758;6.106;2023-05-01T09:04:50;4.00;;;1.95;;
73150;SDS011;61354;50.758;6.106;2023-05-01T09:07:16;3.05;;;1.70;;
73150;SDS011;61354;50.758;6.106;2023-05-01T09:09:42;3.35;;;2.00;;
73150;SDS011;61354;50.758;6.106;2023-05-01T09:14:39;3.83;;;2.05;;
73150;SDS011;61354;50.758;6.106;2023-05-01T09:17:05;3.10;;;2.00;;
73150;SDS011;61354;50.758;6.106;2023-05-01T09:19:30;3.15;;;1.95;;
73150;SDS011;61354;50.758;6.106;2023-05-01T09:21:56;3.80;;;2.03;;
73150;SDS011;61354;50.758;6.106;2023-05-01T09:24:22;3.22;;;2.03;;
73150;SDS011;61354;50.758;6.106;2023-05-01T09:26:50;3.90;;;2.13;;
73150;SDS011;61354;50.758;6.106;2023-05-01T09:34:46;3.70;;;2.20;;
73150;SDS011;61354;50.758;6.106;2023-05-01T09:37:26;4.57;;;2.42;;
73150;SDS011;61354;50.758;6.106;2023-05-01T09:40:04;3.65;;;2.28;;
73150;SDS011;61354;50.758;6.106;2023-05-01T09:42:31;4.13;;;2.65;;
73150;SDS011;61354;50.758;6.106;2023-05-01T09:44:58;4.05;;;2.35;;
73150;SDS011;61354;50.758;6.106;2023-05-01T09:47:25;4.93;;;2.70;;
73150;SDS011;61354;50.758;6.106;2023-05-01T09:49:54;4.22;;;2.60;;
73150;SDS011;61354;50.758;6.106;2023-05-01T09:52:22;3.58;;;2.38;;
73150;SDS011;61354;50.758;6.106;2023-05-01T09:54:57;4.38;;;2.55;;
73150;SDS011;61354;50.758;6.106;2023-05-01T09:57:35;4.10;;;2.38;;
73150;SDS011;61354;50.758;6.106;2023-05-01T10:00:02;4.68;;;2.80;;
73150;SDS011;61354;50.758;6.106;2023-05-01T10:02:33;3.78;;;2.10;;
73150;SDS011;61354;50.758;6.106;2023-05-01T10:04:58;4.35;;;2.55;;
73150;SDS011;61354;50.758;6.106;2023-05-01T10:07:24;4.95;;;2.60;;
73150;SDS011;61354;50.758;6.106;2023-05-01T10:09:50;5.20;;;2.30;;
73150;SDS011;61354;50.758;6.106;2023-05-01T10:12:23;4.43;;;2.95;;
73150;SDS011;61354;50.758;6.106;2023-05-01T10:14:53;4.45;;;2.95;;
73150;SDS011;61354;50.758;6.106;2023-05-01T10:17:19;5.80;;;2.90;;
73150;SDS011;61354;50.758;6.106;2023-05-01T10:19:45;4.97;;;3.28;;
73150;SDS011;61354;50.758;6.106;2023-05-01T10:22:14;5.05;;;3.22;;
73150;SDS011;61354;50.758;6.106;2023-05-01T10:24:41;5.68;;;3.50;;
73150;SDS011;61354;50.758;6.106;2023-05-01T10:27:08;7.45;;;3.60;;
73150;SDS011;61354;50.758;6.106;2023-05-01T10:29:34;6.32;;;4.30;;
73150;SDS011;61354;50.758;6.106;2023-05-01T10:32:03;6.50;;;3.65;;
73150;SDS011;61354;50.758;6.106;2023-05-01T10:34:33;6.95;;;4.07;;
73150;SDS011;61354;50.758;6.106;2023-05-01T10:37:10;8.43;;;4.28;;
73150;SDS011;61354;50.758;6.106;2023-05-01T10:39:38;5.90;;;3.72;;
73150;SDS011;61354;50.758;6.106;2023-05-01T10:42:04;7.00;;;4.50;;
73150;SDS011;61354;50.758;6.106;2023-05-01T10:44:30;8.13;;;4.60;;
73150;SDS011;61354;50.758;6.106;2023-05-01T10:46:56;9.80;;;5.50;;
73150;SDS011;61354;50.758;6.106;2023-05-01T10:49:22;8.15;;;4.93;;
73150;SDS011;61354;50.758;6.106;2023-05-01T10:54:24;9.45;;;5.68;;
73150;SDS011;61354;50.758;6.106;2023-05-01T10:56:51;10.02;;;5.60;;
73150;SDS011;61354;50.758;6.106;2023-05-01T10:59:17;8.88;;;5.90;;
73150;SDS011;61354;50.758;6.106;2023-05-01T11:01:44;9.57;;;5.72;;
73150;SDS011;61354;50.758;6.106;2023-05-01T11:07:13;9.02;;;5.38;;
73150;SDS011;61354;50.758;6.106;2023-05-01T11:15:06;6.60;;;4.00;;
73150;SDS011;61354;50.758;6.106;2023-05-01T11:20:09;6.93;;;4.32;;
73150;SDS011;61354;50.758;6.106;2023-05-01T11:22:36;6.80;;;3.88;;
73150;SDS011;61354;50.758;6.106;2023-05-01T11:25:16;6.70;;;4.03;;
73150;SDS011;61354;50.758;6.106;2023-05-01T11:27:47;8.13;;;5.32;;
73150;SDS011;61354;50.758;6.106;2023-05-01T11:30:14;10.10;;;5.03;;
73150;SDS011;61354;50.758;6.106;2023-05-01T11:32:44;6.75;;;5.05;;
73150;SDS011;61354;50.758;6.106;2023-05-01T11:35:21;9.35;;;5.85;;
73150;SDS011;61354;50.758;6.106;2023-05-01T11:37:47;9.57;;;6.18;;
73150;SDS011;61354;50.758;6.106;2023-05-01T11:40:28;8.60;;;6.10;;
73150;SDS011;61354;50.758;6.106;2023-05-01T11:43:04;9.40;;;6.20;;
73150;SDS011;61354;50.758;6.106;2023-05-01T11:45:31;9.45;;;5.90;;
73150;SDS011;61354;50.758;6.106;2023-05-01T11:47:58;9.07;;;5.88;;
73150;SDS011;61354;50.758;6.106;2023-05-01T11:50:30;8.80;;;6.07;;
73150;SDS011;61354;50.758;6.106;2023-05-01T11:52:57;9.93;;;6.75;;
73150;SDS011;61354;50.758;6.106;2023-05-01T11:55:32;12.10;;;7.93;;
73150;SDS011;61354;50.758;6.106;2023-05-01T11:57:59;9.93;;;7.47;;
73150;SDS011;61354;50.758;6.106;2023-05-01T12:03:03;10.13;;;7.25;;
73150;SDS011;61354;50.758;6.106;2023-05-01T12:05:30;9.75;;;7.47;;
73150;SDS011;61354;50.758;6.106;2023-05-01T12:08:07;9.55;;;6.78;;
73150;SDS011;61354;50.758;6.106;2023-05-01T12:10:44;8.73;;;6.22;;
73150;SDS011;61354;50.758;6.106;2023-05-01T12:13:12;7.55;;;5.80;;
73150;SDS011;61354;50.758;6.106;2023-05-01T12:15:42;10.40;;;6.65;;
73150;SDS011;61354;50.758;6.106;2023-05-01T12:18:10;9.23;;;6.75;;
73150;SDS011;61354;50.758;6.106;2023-05-01T12:20:38;9.10;;;6.18;;
73150;SDS011;61354;50.758;6.106;2023-05-01T12:23:04;9.15;;;6.03;;
73150;SDS011;61354;50.758;6.106;2023-05-01T12:25:31;9.23;;;6.47;;
73150;SDS011;61354;50.758;6.106;2023-05-01T12:27:58;10.40;;;6.63;;
73150;SDS011;61354;50.758;6.106;2023-05-01T12:30:26;9.57;;;6.32;;
73150;SDS011;61354;50.758;6.106;2023-05-01T12:32:52;8.77;;;6.18;;
73150;SDS011;61354;50.758;6.106;2023-05-01T12:35:17;11.02;;;7.13;;
73150;SDS011;61354;50.758;6.106;2023-05-01T12:37:43;11.27;;;7.32;;
73150;SDS011;61354;50.758;6.106;2023-05-01T12:40:14;9.90;;;7.05;;
73150;SDS011;61354;50.758;6.106;2023-05-01T12:42:41;10.80;;;7.35;;
73150;SDS011;61354;50.758;6.106;2023-05-01T12:45:07;9.50;;;6.85;;
73150;SDS011;61354;50.758;6.106;2023-05-01T12:47:35;10.90;;;6.90;;
73150;SDS011;61354;50.758;6.106;2023-05-01T12:50:02;11.30;;;7.25;;
73150;SDS011;61354;50.758;6.106;2023-05-01T12:52:28;9.45;;;6.68;;
73150;SDS011;61354;50.758;6.106;2023-05-01T12:55:01;10.95;;;7.10;;
73150;SDS011;61354;50.758;6.106;2023-05-01T12:57:29;9.82;;;7.10;;
73150;SDS011;61354;50.758;6.106;2023-05-01T12:59:58;9.07;;;7.25;;
73150;SDS011;61354;50.758;6.106;2023-05-01T13:02:31;10.13;;;7.43;;
73150;SDS011;61354;50.758;6.106;2023-05-01T13:05:08;10.90;;;7.55;;
73150;SDS011;61354;50.758;6.106;2023-05-01T13:07:35;10.52;;;6.82;;
73150;SDS011;61354;50.758;6.106;2023-05-01T13:10:02;11.65;;;6.97;;
73150;SDS011;61354;50.758;6.106;2023-05-01T13:12:30;10.43;;;7.47;;
73150;SDS011;61354;50.758;6.106;2023-05-01T13:14:56;10.02;;;7.13;;
73150;SDS011;61354;50.758;6.106;2023-05-01T13:17:26;12.60;;;8.00;;
73150;SDS011;61354;50.758;6.106;2023-05-01T13:19:52;11.93;;;8.18;;
73150;SDS011;61354;50.758;6.106;2023-05-01T13:22:52;10.45;;;7.82;;
73150;SDS011;61354;50.758;6.106;2023-05-01T13:25:15;10.68;;;7.72;;
73150;SDS011;61354;50.758;6.106;2023-05-01T13:27:49;9.43;;;5.82;;
73150;SDS011;61354;50.758;6.106;2023-05-01T13:30:20;7.97;;;6.25;;
73150;SDS011;61354;50.758;6.106;2023-05-01T13:32:55;9.82;;;5.53;;
73150;SDS011;61354;50.758;6.106;2023-05-01T13:35:21;6.78;;;4.82;;
73150;SDS011;61354;50.758;6.106;2023-05-01T13:37:51;5.82;;;4.13;;
73150;SDS011;61354;50.758;6.106;2023-05-01T13:40:18;5.20;;;4.32;;
73150;SDS011;61354;50.758;6.106;2023-05-01T13:42:44;5.45;;;4.47;;
73150;SDS011;61354;50.758;6.106;2023-05-01T13:45:11;5.72;;;4.20;;
73150;SDS011;61354;50.758;6.106;2023-05-01T13:47:38;6.65;;;4.40;;
73150;SDS011;61354;50.758;6.106;2023-05-01T13:50:08;5.65;;;4.28;;
73150;SDS011;61354;50.758;6.106;2023-05-01T13:52:41;4.25;;;3.28;;
73150;SDS011;61354;50.758;6.106;2023-05-01T13:55:10;4.70;;;3.10;;
73150;SDS011;61354;50.758;6.106;2023-05-01T13:57:37;6.60;;;3.33;;
73150;SDS011;61354;50.758;6.106;2023-05-01T14:00:06;4.90;;;2.97;;
73150;SDS011;61354;50.758;6.106;2023-05-01T14:02:33;3.58;;;2.50;;
73150;SDS011;61354;50.758;6.106;2023-05-01T14:05:01;3.85;;;2.58;;
73150;SDS011;61354;50.758;6.106;2023-05-01T14:07:33;3.10;;;2.13;;
73150;SDS011;61354;50.758;6.106;2023-05-01T14:10:07;3.38;;;2.38;;
73150;SDS011;61354;50.758;6.106;2023-05-01T14:12:33;4.78;;;2.85;;
73150;SDS011;61354;50.758;6.106;2023-05-01T14:14:59;4.00;;;2.42;;
73150;SDS011;61354;50.758;6.106;2023-05-01T14:17:34;3.72;;;2.53;;
73150;SDS011;61354;50.758;6.106;2023-05-01T14:20:01;3.00;;;2.17;;
73150;SDS011;61354;50.758;6.106;2023-05-01T14:22:44;3.83;;;2.53;;
73150;SDS011;61354;50.758;6.106;2023-05-01T14:25:26;3.65;;;2.10;;
73150;SDS011;61354;50.758;6.106;2023-05-01T14:27:54;3.28;;;2.30;;
73150;SDS011;61354;50.758;6.106;2023-05-01T14:30:35;3.67;;;2.30;;
73150;SDS011;61354;50.758;6.106;2023-05-01T14:35:32;5.00;;;3.28;;
73150;SDS011;61354;50.758;6.106;2023-05-01T14:38:11;5.82;;;3.75;;
73150;SDS011;61354;50.758;6.106;2023-05-01T14:40:39;5.40;;;3.40;;
73150;SDS011;61354;50.758;6.106;2023-05-01T14:43:06;4.93;;;3.67;;
73150;SDS011;61354;50.758;6.106;2023-05-01T14:45:34;5.90;;;3.53;;
73150;SDS011;61354;50.758;6.106;2023-05-01T14:48:00;4.78;;;3.35;;
73150;SDS011;61354;50.758;6.106;2023-05-01T14:50:26;6.22;;;3.92;;
73150;SDS011;61354;50.758;6.106;2023-05-01T14:52:53;5.47;;;3.60;;
73150;SDS011;61354;50.758;6.106;2023-05-01T14:55:20;6.57;;;4.40;;
73150;SDS011;61354;50.758;6.106;2023-05-01T14:57:55;8.35;;;5.13;;
73150;SDS011;61354;50.758;6.106;2023-05-01T15:00:21;7.72;;;5.47;;
73150;SDS011;61354;50.758;6.106;2023-05-01T15:02:48;9.05;;;4.60;;
73150;SDS011;61354;50.758;6.106;2023-05-01T15:05:14;7.68;;;5.10;;
73150;SDS011;61354;50.758;6.106;2023-05-01T15:07:41;6.32;;;4.63;;
73150;SDS011;61354;50.758;6.106;2023-05-01T15:10:07;7.13;;;5.05;;
73150;SDS011;61354;50.758;6.106;2023-05-01T15:12:33;9.65;;;6.78;;
73150;SDS011;61354;50.758;6.106;2023-05-01T15:14:58;6.80;;;5.63;;
73150;SDS011;61354;50.758;6.106;2023-05-01T15:17:24;8.65;;;6.50;;
73150;SDS011;61354;50.758;6.106;2023-05-01T15:19:50;9.35;;;7.57;;
73150;SDS011;61354;50.758;6.106;2023-05-01T15:22:15;10.13;;;7.75;;
73150;SDS011;61354;50.758;6.106;2023-05-01T15:24:41;10.43;;;7.38;;
73150;SDS011;61354;50.758;6.106;2023-05-01T15:27:07;10.25;;;7.53;;
73150;SDS011;61354;50.758;6.106;2023-05-01T15:29:33;9.18;;;7.32;;
73150;SDS011;61354;50.758;6.106;2023-05-01T15:31:59;11.10;;;7.90;;
73150;SDS011;61354;50.758;6.106;2023-05-01T15:34:25;11.52;;;8.27;;
73150;SDS011;61354;50.758;6.106;2023-05-01T15:36:50;10.00;;;7.22;;